sensor_id;sensor_type;location;lat;lon;timestamp;temperature;humidity
15922;DHT22;8060;50.948;3.146;2022-08-23T05:34:40;19.60;99.90
15922;DHT22;8060;50.948;3.146;2022-08-23T05:37:08;19.60;99.90
15922;DHT22;8060;50.948;3.146;2022-08-23T05:39:36;19.70;99.90
15922;DHT22;8060;50.948;3.146;2022-08-23T05:42:05;19.80;99.90
15922;DHT22;8060;50.948;3.146;2022-08-23T05:44:33;19.80;99.90
15922;DHT22;8060;50.948;3.146;2022-08-23T05:47:05;20.00;99.90
15922;DHT22;8060;50.948;3.146;2022-08-23T05:49:37;20.00;99.90
15922;DHT22;8060;50.948;3.146;2022-08-23T05:52:09;20.10;99.90
15922;DHT22;8060;50.948;3.146;2022-08-23T05:54:39;20.20;99.90
15922;DHT22;8060;50.948;3.146;2022-08-23T05:57:08;20.20;99.90
15922;DHT22;8060;50.948;3.146;2022-08-23T05:59:37;20.30;99.90
15922;DHT22;8060;50.948;3.146;2022-08-23T06:02:05;20.40;99.90
15922;DHT22;8060;50.948;3.146;2022-08-23T06:04:33;20.40;99.90
15922;DHT22;8060;50.948;3.146;2022-08-23T06:07:02;20.60;99.90
15922;DHT22;8060;50.948;3.146;2022-08-23T06:09:33;20.70;99.90
15922;DHT22;8060;50.948;3.146;2022-08-23T06:12:01;20.90;99.90
15922;DHT22;8060;50.948;3.146;2022-08-23T06:14:29;21.00;99.90
15922;DHT22;8060;50.948;3.146;2022-08-23T06:16:57;21.10;99.90
15922;DHT22;8060;50.948;3.146;2022-08-23T06:19:26;21.20;99.90
15922;DHT22;8060;50.948;3.146;2022-08-23T06:21:54;21.40;99.90
15922;DHT22;8060;50.948;3.146;2022-08-23T06:24:22;21.50;99.90
15922;DHT22;8060;50.948;3.146;2022-08-23T06:26:51;21.50;99.90
15922;DHT22;8060;50.948;3.146;2022-08-23T06:29:20;21.60;99.90
15922;DHT22;8060;50.948;3.146;2022-08-23T06:31:49;21.70;99.90
15922;DHT22;8060;50.948;3.146;2022-08-23T06:34:20;21.80;99.90
15922;DHT22;8060;50.948;3.146;2022-08-23T06:36:50;21.90;99.90
15922;DHT22;8060;50.948;3.146;2022-08-23T06:39:20;21.80;99.90
15922;DHT22;8060;50.948;3.146;2022-08-23T06:41:49;21.90;99.90
15922;DHT22;8060;50.948;3.146;2022-08-23T06:44:18;21.90;99.90
15922;DHT22;8060;50.948;3.146;2022-08-23T06:46:46;21.80;99.90
15922;DHT22;8060;50.948;3.146;2022-08-23T06:49:15;21.90;99.90
15922;DHT22;8060;50.948;3.146;2022-08-23T06:51:47;21.90;99.90
15922;DHT22;8060;50.948;3.146;2022-08-23T06:54:20;22.00;99.90
15922;DHT22;8060;50.948;3.146;2022-08-23T06:56:52;22.00;99.90
15922;DHT22;8060;50.948;3.146;2022-08-23T06:59:22;22.10;99.90
15922;DHT22;8060;50.948;3.146;2022-08-23T07:01:52;22.20;99.90
15922;DHT22;8060;50.948;3.146;2022-08-23T07:04:26;22.30;99.90
15922;DHT22;8060;50.948;3.146;2022-08-23T07:06:55;22.40;99.90
15922;DHT22;8060;50.948;3.146;2022-08-23T07:09:24;22.50;99.90
15922;DHT22;8060;50.948;3.146;2022-08-23T07:11:53;22.60;99.90
15922;DHT22;8060;50.948;3.146;2022-08-23T07:14:23;22.70;99.90
15922;DHT22;8060;50.948;3.146;2022-08-23T07:16:53;22.90;99.90
15922;DHT22;8060;50.948;3.146;2022-08-23T07:19:23;23.10;99.90
15922;DHT22;8060;50.948;3.146;2022-08-23T07:21:55;23.30;99.90
15922;DHT22;8060;50.948;3.146;2022-08-23T07:24:24;23.20;99.90
15922;DHT22;8060;50.948;3.146;2022-08-23T07:26:59;23.20;99.90
15922;DHT22;8060;50.948;3.146;2022-08-23T07:29:29;23.20;99.90
15922;DHT22;8060;50.948;3.146;2022-08-23T07:31:57;23.10;99.90
15922;DHT22;8060;50.948;3.146;2022-08-23T07:34:25;23.10;99.90
15922;DHT22;8060;50.948;3.146;2022-08-23T07:36:53;23.10;99.90
15922;DHT22;8060;50.948;3.146;2022-08-23T07:39:23;23.10;99.90
15922;DHT22;8060;50.948;3.146;2022-08-23T07:41:52;23.00;99.90
15922;DHT22;8060;50.948;3.146;2022-08-23T07:44:20;23.00;99.90
15922;DHT22;8060;50.948;3.146;2022-08-23T07:46:54;23.00;99.90
15922;DHT22;8060;50.948;3.146;2022-08-23T07:49:22;23.00;99.90
15922;DHT22;8060;50.948;3.146;2022-08-23T07:51:55;23.00;99.90
15922;DHT22;8060;50.948;3.146;2022-08-23T07:54:25;22.90;99.90
15922;DHT22;8060;50.948;3.146;2022-08-23T07:56:54;23.00;99.90
15922;DHT22;8060;50.948;3.146;2022-08-23T07:59:22;23.00;99.90
15922;DHT22;8060;50.948;3.146;2022-08-23T08:01:50;23.10;99.90
15922;DHT22;8060;50.948;3.146;2022-08-23T08:04:20;23.30;99.90
15922;DHT22;8060;50.948;3.146;2022-08-23T08:06:48;23.40;99.90
15922;DHT22;8060;50.948;3.146;2022-08-23T08:09:38;23.60;99.90
15922;DHT22;8060;50.948;3.146;2022-08-23T08:12:06;23.70;99.90
15922;DHT22;8060;50.948;3.146;2022-08-23T08:14:36;23.80;99.90
15922;DHT22;8060;50.948;3.146;2022-08-23T08:17:05;23.80;99.90
15922;DHT22;8060;50.948;3.146;2022-08-23T08:19:35;23.80;99.90
15922;DHT22;8060;50.948;3.146;2022-08-23T08:22:03;23.90;99.90
15922;DHT22;8060;50.948;3.146;2022-08-23T08:24:31;23.90;99.90
15922;DHT22;8060;50.948;3.146;2022-08-23T08:27:00;24.00;99.90
15922;DHT22;8060;50.948;3.146;2022-08-23T08:29:28;24.10;99.90
15922;DHT22;8060;50.948;3.146;2022-08-23T08:31:57;24.30;99.90
15922;DHT22;8060;50.948;3.146;2022-08-23T08:34:25;24.30;99.90
15922;DHT22;8060;50.948;3.146;2022-08-23T08:36:56;24.40;99.90
15922;DHT22;8060;50.948;3.146;2022-08-23T08:39:28;24.50;99.90
15922;DHT22;8060;50.948;3.146;2022-08-23T08:42:17;24.60;99.90
15922;DHT22;8060;50.948;3.146;2022-08-23T08:44:53;24.40;99.90
15922;DHT22;8060;50.948;3.146;2022-08-23T08:47:35;24.40;99.90
15922;DHT22;8060;50.948;3.146;2022-08-23T08:50:14;24.30;99.90
15922;DHT22;8060;50.948;3.146;2022-08-23T08:52:49;24.20;99.90
15922;DHT22;8060;50.948;3.146;2022-08-23T08:55:21;24.20;99.90
15922;DHT22;8060;50.948;3.146;2022-08-23T08:57:51;24.10;99.90
15922;DHT22;8060;50.948;3.146;2022-08-23T09:00:23;24.10;99.90
15922;DHT22;8060;50.948;3.146;2022-08-23T09:02:52;24.00;99.90
15922;DHT22;8060;50.948;3.146;2022-08-23T09:05:24;23.90;99.90
15922;DHT22;8060;50.948;3.146;2022-08-23T09:08:07;23.90;99.90
15922;DHT22;8060;50.948;3.146;2022-08-23T09:10:50;24.00;99.90
15922;DHT22;8060;50.948;3.146;2022-08-23T09:13:38;24.00;99.90
15922;DHT22;8060;50.948;3.146;2022-08-23T09:16:21;23.90;99.90
15922;DHT22;8060;50.948;3.146;2022-08-23T09:18:54;23.90;99.90
15922;DHT22;8060;50.948;3.146;2022-08-23T09:21:23;23.90;99.90
15922;DHT22;8060;50.948;3.146;2022-08-23T09:23:55;23.80;99.90
15922;DHT22;8060;50.948;3.146;2022-08-23T09:26:29;23.80;99.90
15922;DHT22;8060;50.948;3.146;2022-08-23T09:29:00;23.90;99.90
15922;DHT22;8060;50.948;3.146;2022-08-23T09:31:38;24.00;99.90
15922;DHT22;8060;50.948;3.146;2022-08-23T09:34:08;24.20;99.90
15922;DHT22;8060;50.948;3.146;2022-08-23T09:36:37;24.40;99.90
15922;DHT22;8060;50.948;3.146;2022-08-23T09:39:24;24.70;99.90
15922;DHT22;8060;50.948;3.146;2022-08-23T09:41:56;24.90;99.90
15922;DHT22;8060;50.948;3.146;2022-08-23T09:44:34;25.00;99.90
15922;DHT22;8060;50.948;3.146;2022-08-23T09:47:06;25.20;99.90
15922;DHT22;8060;50.948;3.146;2022-08-23T09:49:34;25.40;99.90
15922;DHT22;8060;50.948;3.146;2022-08-23T09:52:11;25.70;99.90
15922;DHT22;8060;50.948;3.146;2022-08-23T09:54:56;25.80;99.90
15922;DHT22;8060;50.948;3.146;2022-08-23T09:57:27;26.00;99.90
15922;DHT22;8060;50.948;3.146;2022-08-23T10:00:00;26.30;99.90
15922;DHT22;8060;50.948;3.146;2022-08-23T10:02:31;26.80;99.90
15922;DHT22;8060;50.948;3.146;2022-08-23T10:05:04;27.30;99.90
15922;DHT22;8060;50.948;3.146;2022-08-23T10:07:42;27.70;99.90
15922;DHT22;8060;50.948;3.146;2022-08-23T10:10:20;27.60;99.90
15922;DHT22;8060;50.948;3.146;2022-08-23T10:12:49;27.40;99.90
15922;DHT22;8060;50.948;3.146;2022-08-23T10:15:17;27.20;99.90
15922;DHT22;8060;50.948;3.146;2022-08-23T10:17:52;26.80;99.90
15922;DHT22;8060;50.948;3.146;2022-08-23T10:20:30;26.50;99.90
15922;DHT22;8060;50.948;3.146;2022-08-23T10:23:12;26.30;99.90
15922;DHT22;8060;50.948;3.146;2022-08-23T10:25:48;26.30;99.90
15922;DHT22;8060;50.948;3.146;2022-08-23T10:28:30;26.30;99.90
15922;DHT22;8060;50.948;3.146;2022-08-23T10:31:31;26.30;99.90
15922;DHT22;8060;50.948;3.146;2022-08-23T10:34:19;26.40;99.90
15922;DHT22;8060;50.948;3.146;2022-08-23T10:37:05;26.50;99.90
15922;DHT22;8060;50.948;3.146;2022-08-23T10:39:45;27.00;99.90
15922;DHT22;8060;50.948;3.146;2022-08-23T10:42:21;27.30;99.90
15922;DHT22;8060;50.948;3.146;2022-08-23T10:44:58;27.90;99.90
15922;DHT22;8060;50.948;3.146;2022-08-23T10:47:33;28.10;99.90
15922;DHT22;8060;50.948;3.146;2022-08-23T10:50:06;28.10;99.90
15922;DHT22;8060;50.948;3.146;2022-08-23T10:52:37;28.20;99.90
15922;DHT22;8060;50.948;3.146;2022-08-23T10:55:14;28.30;99.90
15922;DHT22;8060;50.948;3.146;2022-08-23T10:58:03;28.40;99.90
15922;DHT22;8060;50.948;3.146;2022-08-23T11:00:33;29.00;99.90
15922;DHT22;8060;50.948;3.146;2022-08-23T11:03:10;29.40;99.90
15922;DHT22;8060;50.948;3.146;2022-08-23T11:05:40;29.60;99.90
15922;DHT22;8060;50.948;3.146;2022-08-23T11:08:10;29.50;99.90
15922;DHT22;8060;50.948;3.146;2022-08-23T11:10:44;29.30;99.90
15922;DHT22;8060;50.948;3.146;2022-08-23T11:13:26;29.40;99.90
15922;DHT22;8060;50.948;3.146;2022-08-23T11:15:57;29.80;99.90
15922;DHT22;8060;50.948;3.146;2022-08-23T11:18:44;30.20;99.90
15922;DHT22;8060;50.948;3.146;2022-08-23T11:21:45;30.60;99.90
15922;DHT22;8060;50.948;3.146;2022-08-23T11:24:47;30.40;99.90
15922;DHT22;8060;50.948;3.146;2022-08-23T11:27:26;30.00;99.90
15922;DHT22;8060;50.948;3.146;2022-08-23T11:29:57;30.10;99.90
15922;DHT22;8060;50.948;3.146;2022-08-23T11:32:45;30.60;99.90
15922;DHT22;8060;50.948;3.146;2022-08-23T11:35:32;30.90;99.90
15922;DHT22;8060;50.948;3.146;2022-08-23T11:38:09;31.00;99.90
15922;DHT22;8060;50.948;3.146;2022-08-23T11:40:41;31.40;99.90
15922;DHT22;8060;50.948;3.146;2022-08-23T11:43:28;31.30;99.90
15922;DHT22;8060;50.948;3.146;2022-08-23T11:46:28;31.50;99.90
15922;DHT22;8060;50.948;3.146;2022-08-23T11:49:14;31.90;99.90
15922;DHT22;8060;50.948;3.146;2022-08-23T11:51:53;32.20;99.90
15922;DHT22;8060;50.948;3.146;2022-08-23T11:54:55;32.20;99.90
15922;DHT22;8060;50.948;3.146;2022-08-23T11:57:35;32.00;99.90
15922;DHT22;8060;50.948;3.146;2022-08-23T12:00:17;31.50;99.90
15922;DHT22;8060;50.948;3.146;2022-08-23T12:03:04;31.20;99.90
15922;DHT22;8060;50.948;3.146;2022-08-23T12:06:09;30.90;99.90
15922;DHT22;8060;50.948;3.146;2022-08-23T12:08:48;30.40;99.90
15922;DHT22;8060;50.948;3.146;2022-08-23T12:11:18;30.10;99.90
15922;DHT22;8060;50.948;3.146;2022-08-23T12:13:51;30.10;99.90
15922;DHT22;8060;50.948;3.146;2022-08-23T12:16:35;30.10;99.90
15922;DHT22;8060;50.948;3.146;2022-08-23T12:19:19;29.90;99.90
15922;DHT22;8060;50.948;3.146;2022-08-23T12:21:53;29.90;99.90
15922;DHT22;8060;50.948;3.146;2022-08-23T12:24:30;29.80;99.90
15922;DHT22;8060;50.948;3.146;2022-08-23T12:27:07;29.80;99.90
15922;DHT22;8060;50.948;3.146;2022-08-23T12:29:48;29.90;99.90
15922;DHT22;8060;50.948;3.146;2022-08-23T12:32:25;29.80;99.90
15922;DHT22;8060;50.948;3.146;2022-08-23T12:35:15;30.20;99.90
15922;DHT22;8060;50.948;3.146;2022-08-23T12:37:52;30.90;99.90
15922;DHT22;8060;50.948;3.146;2022-08-23T12:40:27;31.70;99.90
15922;DHT22;8060;50.948;3.146;2022-08-23T12:43:03;32.20;99.90
15922;DHT22;8060;50.948;3.146;2022-08-23T12:45:37;32.80;99.90
15922;DHT22;8060;50.948;3.146;2022-08-23T12:48:10;32.90;99.90
15922;DHT22;8060;50.948;3.146;2022-08-23T12:50:41;32.60;99.90
15922;DHT22;8060;50.948;3.146;2022-08-23T12:53:12;32.30;99.90
15922;DHT22;8060;50.948;3.146;2022-08-23T12:55:43;32.20;99.90
15922;DHT22;8060;50.948;3.146;2022-08-23T12:58:13;32.00;99.90
15922;DHT22;8060;50.948;3.146;2022-08-23T13:00:51;32.20;99.90
15922;DHT22;8060;50.948;3.146;2022-08-23T13:03:22;32.20;99.90
15922;DHT22;8060;50.948;3.146;2022-08-23T13:05:55;32.00;99.90
15922;DHT22;8060;50.948;3.146;2022-08-23T13:08:31;31.60;99.90
15922;DHT22;8060;50.948;3.146;2022-08-23T13:11:02;31.20;99.90
15922;DHT22;8060;50.948;3.146;2022-08-23T13:13:40;31.30;99.90
15922;DHT22;8060;50.948;3.146;2022-08-23T13:16:26;31.50;99.90
15922;DHT22;8060;50.948;3.146;2022-08-23T13:19:13;31.90;99.90
15922;DHT22;8060;50.948;3.146;2022-08-23T13:21:43;32.10;99.90
15922;DHT22;8060;50.948;3.146;2022-08-23T13:24:31;32.30;99.90
15922;DHT22;8060;50.948;3.146;2022-08-23T13:27:17;32.70;99.90
15922;DHT22;8060;50.948;3.146;2022-08-23T13:29:54;32.80;99.90
15922;DHT22;8060;50.948;3.146;2022-08-23T13:32:26;32.80;99.90
15922;DHT22;8060;50.948;3.146;2022-08-23T13:35:25;33.10;99.90
15922;DHT22;8060;50.948;3.146;2022-08-23T13:37:59;33.40;99.90
15922;DHT22;8060;50.948;3.146;2022-08-23T13:40:30;33.60;99.90
15922;DHT22;8060;50.948;3.146;2022-08-23T13:43:01;33.50;99.90
15922;DHT22;8060;50.948;3.146;2022-08-23T13:45:42;33.40;99.90
15922;DHT22;8060;50.948;3.146;2022-08-23T13:48:15;33.10;99.90
15922;DHT22;8060;50.948;3.146;2022-08-23T13:50:45;32.50;99.90
15922;DHT22;8060;50.948;3.146;2022-08-23T13:53:15;32.20;99.90
15922;DHT22;8060;50.948;3.146;2022-08-23T13:55:47;32.30;99.90
15922;DHT22;8060;50.948;3.146;2022-08-23T13:58:25;32.40;99.90
15922;DHT22;8060;50.948;3.146;2022-08-23T14:00:54;32.50;99.90
15922;DHT22;8060;50.948;3.146;2022-08-23T14:03:27;32.20;99.90
15922;DHT22;8060;50.948;3.146;2022-08-23T14:05:56;32.20;99.90
15922;DHT22;8060;50.948;3.146;2022-08-23T14:08:27;32.00;99.90
15922;DHT22;8060;50.948;3.146;2022-08-23T14:10:55;32.20;99.90
15922;DHT22;8060;50.948;3.146;2022-08-23T14:13:27;32.40;99.90
15922;DHT22;8060;50.948;3.146;2022-08-23T14:16:01;32.60;99.90
15922;DHT22;8060;50.948;3.146;2022-08-23T14:18:50;32.80;99.90
15922;DHT22;8060;50.948;3.146;2022-08-23T14:21:38;32.90;99.90
15922;DHT22;8060;50.948;3.146;2022-08-23T14:24:08;32.60;99.90
15922;DHT22;8060;50.948;3.146;2022-08-23T14:26:36;32.70;99.90
15922;DHT22;8060;50.948;3.146;2022-08-23T14:29:17;32.50;99.90
15922;DHT22;8060;50.948;3.146;2022-08-23T14:31:49;32.20;99.90
15922;DHT22;8060;50.948;3.146;2022-08-23T14:34:17;32.00;99.90
15922;DHT22;8060;50.948;3.146;2022-08-23T14:36:45;32.00;99.90
15922;DHT22;8060;50.948;3.146;2022-08-23T14:39:35;31.90;99.90
15922;DHT22;8060;50.948;3.146;2022-08-23T14:42:04;32.00;99.90
15922;DHT22;8060;50.948;3.146;2022-08-23T14:44:33;31.90;99.90
15922;DHT22;8060;50.948;3.146;2022-08-23T14:47:03;31.80;99.90
15922;DHT22;8060;50.948;3.146;2022-08-23T14:49:31;31.60;99.90
15922;DHT22;8060;50.948;3.146;2022-08-23T14:52:00;31.00;99.90
15922;DHT22;8060;50.948;3.146;2022-08-23T14:54:29;30.90;99.90
15922;DHT22;8060;50.948;3.146;2022-08-23T14:56:58;30.70;99.90
15922;DHT22;8060;50.948;3.146;2022-08-23T14:59:26;30.70;99.90
15922;DHT22;8060;50.948;3.146;2022-08-23T15:01:55;30.80;99.90
15922;DHT22;8060;50.948;3.146;2022-08-23T15:04:25;30.70;99.90
15922;DHT22;8060;50.948;3.146;2022-08-23T15:07:01;30.70;99.90
15922;DHT22;8060;50.948;3.146;2022-08-23T15:09:46;30.50;99.90
15922;DHT22;8060;50.948;3.146;2022-08-23T15:12:17;30.60;99.90
15922;DHT22;8060;50.948;3.146;2022-08-23T15:15:09;30.50;99.90
15922;DHT22;8060;50.948;3.146;2022-08-23T15:17:44;30.40;99.90
15922;DHT22;8060;50.948;3.146;2022-08-23T15:20:13;30.40;99.90
15922;DHT22;8060;50.948;3.146;2022-08-23T15:22:42;30.30;99.90
15922;DHT22;8060;50.948;3.146;2022-08-23T15:25:21;30.20;99.90
15922;DHT22;8060;50.948;3.146;2022-08-23T15:27:51;30.00;99.90
15922;DHT22;8060;50.948;3.146;2022-08-23T15:30:20;29.80;99.90
15922;DHT22;8060;50.948;3.146;2022-08-23T15:32:49;29.70;99.90
15922;DHT22;8060;50.948;3.146;2022-08-23T15:35:26;29.70;99.90
15922;DHT22;8060;50.948;3.146;2022-08-23T15:37:55;29.70;99.90
15922;DHT22;8060;50.948;3.146;2022-08-23T15:40:23;29.60;99.90
15922;DHT22;8060;50.948;3.146;2022-08-23T15:42:53;29.60;99.90
15922;DHT22;8060;50.948;3.146;2022-08-23T15:45:21;29.50;99.90
15922;DHT22;8060;50.948;3.146;2022-08-23T15:47:54;29.50;99.90
15922;DHT22;8060;50.948;3.146;2022-08-23T15:50:25;29.40;99.90
15922;DHT22;8060;50.948;3.146;2022-08-23T15:52:54;29.40;99.90
15922;DHT22;8060;50.948;3.146;2022-08-23T15:55:23;29.50;99.90
15922;DHT22;8060;50.948;3.146;2022-08-23T15:57:54;29.40;99.90
15922;DHT22;8060;50.948;3.146;2022-08-23T16:00:25;29.30;99.90
15922;DHT22;8060;50.948;3.146;2022-08-23T16:02:54;29.30;99.90
15922;DHT22;8060;50.948;3.146;2022-08-23T16:05:44;29.40;99.90
15922;DHT22;8060;50.948;3.146;2022-08-23T16:08:18;29.40;99.90
15922;DHT22;8060;50.948;3.146;2022-08-23T16:10:47;29.40;99.90
15922;DHT22;8060;50.948;3.146;2022-08-23T16:13:17;29.40;99.90
15922;DHT22;8060;50.948;3.146;2022-08-23T16:15:46;29.40;99.90
15922;DHT22;8060;50.948;3.146;2022-08-23T16:18:14;29.30;99.90
15922;DHT22;8060;50.948;3.146;2022-08-23T16:20:43;29.20;99.90
15922;DHT22;8060;50.948;3.146;2022-08-23T16:23:12;29.30;99.90
15922;DHT22;8060;50.948;3.146;2022-08-23T16:25:40;29.20;99.90
15922;DHT22;8060;50.948;3.146;2022-08-23T16:28:09;29.20;99.90
15922;DHT22;8060;50.948;3.146;2022-08-23T16:30:38;29.10;99.90
15922;DHT22;8060;50.948;3.146;2022-08-23T16:33:06;29.10;99.90
15922;DHT22;8060;50.948;3.146;2022-08-23T16:35:35;29.00;99.90
15922;DHT22;8060;50.948;3.146;2022-08-23T16:38:03;29.00;99.90
15922;DHT22;8060;50.948;3.146;2022-08-23T16:40:31;28.90;99.90
15922;DHT22;8060;50.948;3.146;2022-08-23T16:42:59;28.80;99.90
15922;DHT22;8060;50.948;3.146;2022-08-23T16:45:27;28.70;99.90
15922;DHT22;8060;50.948;3.146;2022-08-23T16:47:57;28.70;99.90
15922;DHT22;8060;50.948;3.146;2022-08-23T16:50:26;28.60;99.90
15922;DHT22;8060;50.948;3.146;2022-08-23T16:52:54;28.50;99.90
15922;DHT22;8060;50.948;3.146;2022-08-23T16:55:22;28.40;99.90
15922;DHT22;8060;50.948;3.146;2022-08-23T16:57:51;28.40;99.90
15922;DHT22;8060;50.948;3.146;2022-08-23T17:00:19;28.30;99.90
15922;DHT22;8060;50.948;3.146;2022-08-23T17:02:48;28.20;99.90
15922;DHT22;8060;50.948;3.146;2022-08-23T17:05:18;28.10;99.90
15922;DHT22;8060;50.948;3.146;2022-08-23T17:07:46;28.00;99.90
15922;DHT22;8060;50.948;3.146;2022-08-23T17:10:16;28.00;99.90
15922;DHT22;8060;50.948;3.146;2022-08-23T17:12:47;28.00;99.90
15922;DHT22;8060;50.948;3.146;2022-08-23T17:15:18;28.00;99.90
15922;DHT22;8060;50.948;3.146;2022-08-23T17:17:47;27.90;99.90
15922;DHT22;8060;50.948;3.146;2022-08-23T17:20:18;27.90;99.90
15922;DHT22;8060;50.948;3.146;2022-08-23T17:22:46;27.90;99.90
15922;DHT22;8060;50.948;3.146;2022-08-23T17:25:15;27.90;99.90
15922;DHT22;8060;50.948;3.146;2022-08-23T17:27:45;27.90;99.90
15922;DHT22;8060;50.948;3.146;2022-08-23T17:30:16;27.90;99.90
15922;DHT22;8060;50.948;3.146;2022-08-23T17:32:45;27.80;99.90
15922;DHT22;8060;50.948;3.146;2022-08-23T17:35:17;27.70;99.90
15922;DHT22;8060;50.948;3.146;2022-08-23T17:37:46;27.70;99.90
15922;DHT22;8060;50.948;3.146;2022-08-23T17:40:16;27.50;99.90
15922;DHT22;8060;50.948;3.146;2022-08-23T17:42:47;27.50;99.90
15922;DHT22;8060;50.948;3.146;2022-08-23T17:45:16;27.50;99.90
15922;DHT22;8060;50.948;3.146;2022-08-23T17:47:45;27.50;99.90
15922;DHT22;8060;50.948;3.146;2022-08-23T17:50:14;27.50;99.90
15922;DHT22;8060;50.948;3.146;2022-08-23T17:52:45;27.50;99.90
15922;DHT22;8060;50.948;3.146;2022-08-23T17:55:13;27.50;99.90
15922;DHT22;8060;50.948;3.146;2022-08-23T17:57:45;27.60;99.90
15922;DHT22;8060;50.948;3.146;2022-08-23T18:00:16;27.50;99.90
15922;DHT22;8060;50.948;3.146;2022-08-23T18:02:45;27.50;99.90
15922;DHT22;8060;50.948;3.146;2022-08-23T18:05:13;27.50;99.90
15922;DHT22;8060;50.948;3.146;2022-08-23T18:07:41;27.50;99.90
15922;DHT22;8060;50.948;3.146;2022-08-23T18:10:12;27.50;99.90
15922;DHT22;8060;50.948;3.146;2022-08-23T18:12:40;27.50;99.90
15922;DHT22;8060;50.948;3.146;2022-08-23T18:15:09;27.40;99.90
15922;DHT22;8060;50.948;3.146;2022-08-23T18:17:38;27.40;99.90
15922;DHT22;8060;50.948;3.146;2022-08-23T18:20:08;27.40;99.90
15922;DHT22;8060;50.948;3.146;2022-08-23T18:22:37;27.30;99.90
15922;DHT22;8060;50.948;3.146;2022-08-23T18:25:08;27.30;99.90
15922;DHT22;8060;50.948;3.146;2022-08-23T18:27:38;27.20;99.90
15922;DHT22;8060;50.948;3.146;2022-08-23T18:30:32;27.10;99.90
15922;DHT22;8060;50.948;3.146;2022-08-23T18:33:01;27.10;99.90
15922;DHT22;8060;50.948;3.146;2022-08-23T18:35:29;27.10;99.90
15922;DHT22;8060;50.948;3.146;2022-08-23T18:37:58;27.00;99.90
15922;DHT22;8060;50.948;3.146;2022-08-23T18:40:27;27.00;99.90
15922;DHT22;8060;50.948;3.146;2022-08-23T18:42:57;26.90;99.90
15922;DHT22;8060;50.948;3.146;2022-08-23T18:45:26;26.80;99.90
15922;DHT22;8060;50.948;3.146;2022-08-23T18:47:54;26.70;99.90
15922;DHT22;8060;50.948;3.146;2022-08-23T18:50:23;26.70;99.90
15922;DHT22;8060;50.948;3.146;2022-08-23T18:52:51;26.70;99.90
15922;DHT22;8060;50.948;3.146;2022-08-23T18:55:19;26.70;99.90
15922;DHT22;8060;50.948;3.146;2022-08-23T18:57:47;26.70;99.90
15922;DHT22;8060;50.948;3.146;2022-08-23T19:00:16;26.60;99.90
15922;DHT22;8060;50.948;3.146;2022-08-23T19:02:44;26.60;99.90
15922;DHT22;8060;50.948;3.146;2022-08-23T19:05:12;26.60;99.90
15922;DHT22;8060;50.948;3.146;2022-08-23T19:07:41;26.60;99.90
15922;DHT22;8060;50.948;3.146;2022-08-23T19:10:10;26.60;99.90
15922;DHT22;8060;50.948;3.146;2022-08-23T19:12:46;26.50;99.90
15922;DHT22;8060;50.948;3.146;2022-08-23T19:15:21;26.40;99.90
15922;DHT22;8060;50.948;3.146;2022-08-23T19:17:50;26.30;99.90
15922;DHT22;8060;50.948;3.146;2022-08-23T19:20:20;26.30;99.90
15922;DHT22;8060;50.948;3.146;2022-08-23T19:22:48;26.20;99.90
15922;DHT22;8060;50.948;3.146;2022-08-23T19:25:16;26.20;99.90
15922;DHT22;8060;50.948;3.146;2022-08-23T19:27:44;26.20;99.90
15922;DHT22;8060;50.948;3.146;2022-08-23T19:30:15;26.10;99.90
15922;DHT22;8060;50.948;3.146;2022-08-23T19:32:44;26.10;99.90
15922;DHT22;8060;50.948;3.146;2022-08-23T19:35:12;26.10;99.90
15922;DHT22;8060;50.948;3.146;2022-08-23T19:37:41;26.10;99.90
15922;DHT22;8060;50.948;3.146;2022-08-23T19:40:11;26.10;99.90
15922;DHT22;8060;50.948;3.146;2022-08-23T19:42:40;26.00;99.90
15922;DHT22;8060;50.948;3.146;2022-08-23T19:45:09;26.00;99.90
15922;DHT22;8060;50.948;3.146;2022-08-23T19:47:37;26.10;99.90
15922;DHT22;8060;50.948;3.146;2022-08-23T19:50:08;26.00;99.90
15922;DHT22;8060;50.948;3.146;2022-08-23T19:52:37;26.00;99.90
15922;DHT22;8060;50.948;3.146;2022-08-23T19:55:08;25.90;99.90
15922;DHT22;8060;50.948;3.146;2022-08-23T19:57:36;25.90;99.90
15922;DHT22;8060;50.948;3.146;2022-08-23T20:00:07;25.80;99.90
15922;DHT22;8060;50.948;3.146;2022-08-23T20:02:44;25.80;99.90
15922;DHT22;8060;50.948;3.146;2022-08-23T20:05:13;25.80;99.90
15922;DHT22;8060;50.948;3.146;2022-08-23T20:07:42;25.70;99.90
15922;DHT22;8060;50.948;3.146;2022-08-23T20:10:11;25.70;99.90
15922;DHT22;8060;50.948;3.146;2022-08-23T20:12:40;25.70;99.90
15922;DHT22;8060;50.948;3.146;2022-08-23T20:15:10;25.70;99.90
15922;DHT22;8060;50.948;3.146;2022-08-23T20:17:38;25.60;99.90
15922;DHT22;8060;50.948;3.146;2022-08-23T20:20:08;25.50;99.90
15922;DHT22;8060;50.948;3.146;2022-08-23T20:22:38;25.50;99.90
15922;DHT22;8060;50.948;3.146;2022-08-23T20:25:23;25.50;99.90
15922;DHT22;8060;50.948;3.146;2022-08-23T20:27:51;25.40;99.90
15922;DHT22;8060;50.948;3.146;2022-08-23T20:30:19;25.40;99.90
15922;DHT22;8060;50.948;3.146;2022-08-23T20:32:47;25.40;99.90
15922;DHT22;8060;50.948;3.146;2022-08-23T20:35:16;25.40;99.90
15922;DHT22;8060;50.948;3.146;2022-08-23T20:37:45;25.40;99.90
15922;DHT22;8060;50.948;3.146;2022-08-23T20:40:13;25.30;99.90
15922;DHT22;8060;50.948;3.146;2022-08-23T20:42:42;25.30;99.90
15922;DHT22;8060;50.948;3.146;2022-08-23T20:45:10;25.20;99.90
15922;DHT22;8060;50.948;3.146;2022-08-23T20:47:38;25.20;99.90
15922;DHT22;8060;50.948;3.146;2022-08-23T20:50:07;25.20;99.90
15922;DHT22;8060;50.948;3.146;2022-08-23T20:52:36;25.20;99.90
15922;DHT22;8060;50.948;3.146;2022-08-23T20:55:06;25.20;99.90
15922;DHT22;8060;50.948;3.146;2022-08-23T20:57:36;25.10;99.90
15922;DHT22;8060;50.948;3.146;2022-08-23T21:00:06;25.10;99.90
15922;DHT22;8060;50.948;3.146;2022-08-23T21:02:34;25.00;99.90
15922;DHT22;8060;50.948;3.146;2022-08-23T21:05:03;24.90;99.90
15922;DHT22;8060;50.948;3.146;2022-08-23T21:07:32;24.90;99.90
15922;DHT22;8060;50.948;3.146;2022-08-23T21:10:03;24.90;99.90
15922;DHT22;8060;50.948;3.146;2022-08-23T21:12:32;24.90;99.90
15922;DHT22;8060;50.948;3.146;2022-08-23T21:15:00;24.80;99.90
15922;DHT22;8060;50.948;3.146;2022-08-23T21:17:28;24.80;99.90
15922;DHT22;8060;50.948;3.146;2022-08-23T21:19:56;24.80;99.90
15922;DHT22;8060;50.948;3.146;2022-08-23T21:22:24;24.70;99.90
15922;DHT22;8060;50.948;3.146;2022-08-23T21:24:58;24.70;99.90
15922;DHT22;8060;50.948;3.146;2022-08-23T21:27:26;24.70;99.90
15922;DHT22;8060;50.948;3.146;2022-08-23T21:29:56;24.70;99.90
15922;DHT22;8060;50.948;3.146;2022-08-23T21:32:24;24.70;99.90
15922;DHT22;8060;50.948;3.146;2022-08-23T21:34:52;24.60;99.90
15922;DHT22;8060;50.948;3.146;2022-08-23T21:37:20;24.60;99.90
15922;DHT22;8060;50.948;3.146;2022-08-23T21:39:48;24.60;99.90
15922;DHT22;8060;50.948;3.146;2022-08-23T21:42:16;24.50;99.90
15922;DHT22;8060;50.948;3.146;2022-08-23T21:44:49;24.50;99.90
15922;DHT22;8060;50.948;3.146;2022-08-23T21:47:20;24.50;99.90
15922;DHT22;8060;50.948;3.146;2022-08-23T21:49:48;24.50;99.90
15922;DHT22;8060;50.948;3.146;2022-08-23T21:52:16;24.50;99.90